createdAt,value
2022-11-16T20:46:53.819Z,96328.98
2022-11-16T20:49:21.693Z,96328.02
2022-11-16T20:51:51.166Z,96328.91
2022-11-16T20:54:18.893Z,96325.20
2022-11-16T20:56:49.625Z,96325.00
2022-11-16T20:59:17.609Z,96322.25
2022-11-16T21:01:48.225Z,96321.08
2022-11-16T21:04:16.341Z,96317.39
2022-11-16T21:06:44.156Z,96316.66
2022-11-16T21:09:12.409Z,96318.16
2022-11-16T21:11:58.891Z,96326.41
2022-11-16T21:14:26.779Z,96327.02
2022-11-16T21:16:54.602Z,96329.66
2022-11-16T21:19:22.363Z,96324.20
2022-11-16T21:21:50.195Z,96326.66
2022-11-16T21:24:18.022Z,96324.95
2022-11-16T21:26:45.740Z,96320.21
2022-11-16T21:29:13.527Z,96326.58
2022-11-16T21:31:41.323Z,96321.15
2022-11-16T21:34:09.098Z,96317.39
2022-11-16T21:36:36.930Z,96318.60
2022-11-16T21:39:04.733Z,96324.42
2022-11-16T21:41:32.466Z,96319.59
2022-11-16T21:44:00.195Z,96321.17
2022-11-16T21:46:27.972Z,96322.70
2022-11-16T21:48:56.831Z,96323.66
2022-11-16T21:51:27.244Z,96323.58
2022-11-16T21:53:55.645Z,96324.41
2022-11-16T21:56:25.660Z,96326.41
2022-11-16T21:58:54.432Z,96327.30
2022-11-16T22:01:23.953Z,96332.67
2022-11-16T22:04:11.097Z,96327.89
2022-11-16T22:06:57.782Z,96324.96
2022-11-16T22:09:25.572Z,96324.45
2022-11-16T22:11:53.746Z,96326.00
2022-11-16T22:14:21.479Z,96319.83
2022-11-16T22:16:49.220Z,96320.39
2022-11-16T22:19:17.057Z,96318.48
2022-11-16T22:21:44.871Z,96311.35
2022-11-16T22:24:12.659Z,96307.75
2022-11-16T22:26:41.183Z,96309.08
2022-11-16T22:29:08.905Z,96310.65
2022-11-16T22:31:36.746Z,96317.23
2022-11-16T22:34:04.589Z,96320.41
2022-11-16T22:36:32.355Z,96319.84
2022-11-16T22:39:01.006Z,96323.02
2022-11-16T22:41:28.869Z,96319.00
2022-11-16T22:43:56.643Z,96325.81
2022-11-16T22:46:24.500Z,96332.21
2022-11-16T22:48:52.368Z,96336.31
2022-11-16T22:51:21.473Z,96331.92
2022-11-16T22:54:07.459Z,96334.05
2022-11-16T22:56:35.334Z,96333.06
2022-11-16T22:59:03.445Z,96329.75
2022-11-16T23:01:32.336Z,96329.46
2022-11-16T23:04:00.303Z,96329.41
2022-11-16T23:06:28.535Z,96328.06
2022-11-16T23:08:56.296Z,96334.63
2022-11-16T23:11:44.701Z,96334.65
2022-11-16T23:14:36.121Z,96338.23
2022-11-16T23:17:04.705Z,96331.79
2022-11-16T23:19:53.149Z,96332.44
2022-11-16T23:22:40.826Z,96331.10
2022-11-16T23:25:30.203Z,96334.34
2022-11-16T23:28:01.076Z,96336.05
2022-11-16T23:30:28.919Z,96336.41
2022-11-16T23:32:57.034Z,96339.26
2022-11-16T23:35:24.850Z,96335.56
2022-11-16T23:38:04.490Z,96333.32
2022-11-16T23:40:40.090Z,96330.41
2022-11-16T23:43:28.996Z,96331.48
2022-11-16T23:45:56.760Z,96327.77
2022-11-16T23:48:24.683Z,96323.29
2022-11-16T23:50:52.563Z,96321.98
2022-11-16T23:53:20.416Z,96323.47
2022-11-16T23:55:48.384Z,96320.36
2022-11-16T23:58:16.824Z,96316.83
